Nizhniy Novgorod, Russia
Current Conditions -  °F | °C
As of 7:00 PM on Thursday 18 Dec 2014 (Local Time) from UWGG Reporting Station
Broken Clouds Broken Clouds  
Wind Chill: 28°   Ceiling: 2800
Heat Index: 34°   Visibility: 6mi
Dew Point: 28°   Wind: 7mph
Humidity: 81%   Direction: 210°SSW
Pressure: 29.83"   Gusts: NA
Location:  56.33°N, 44°E
Report Text: UWGG 181600Z 21003MPS 9999 BKN028 01/M02 Q1010 NOSIG 18290040RMK QFE750
Loading
Personal Weather Stations






























Interactive Weather Map New forecast layout! Learn more

10-Day Weather Forecast

Advertisements
Track Severe Weather on mobile